Аэропорт: Храброво. Калининград

ICAO: UMKK

METAR:
2024-05-18 16:00:00
UMKK 181600Z 12004MPS 080V160 CAVOK 24/11 Q1014 R06/CLRD95 NOSIG RMK QFE759/1012
TAF:
2024-05-18 13:56:00
TAF UMKK 181356Z 1815/1915 15003G08MPS CAVOK 
  BECMG 1817/1819 VRB01MPS 
  BECMG 1902/1904 10003MPS 
  BECMG 1909/1910 16005G10MPS